Time;durP1;ratioP1;P1;durP2;ratioP2;P2;SDS_P1;SDS_P2;PMS_P1;PMS_P2;Temp;Humidity;BMP_temperature;BMP_pressure;BME280_temperature;BME280_humidity;BME280_pressure;Samples;Min_cycle;Max_cycle;Signal;HPM_P1;HPM_P2
2022/02/23 00:00:44;;;;;;;2.87;0.80;;;10.70;99.90;;;;;;5074701;28;20266;-58
2022/02/23 00:03:11;;;;;;;1.47;0.70;;;10.60;99.90;;;;;;5074677;28;20225;-58
2022/02/23 00:05:38;;;;;;;1.53;0.83;;;10.60;99.90;;;;;;5074519;28;20200;-57
2022/02/23 00:08:06;;;;;;;2.10;0.87;;;10.60;99.90;;;;;;5074548;28;20631;-57
2022/02/23 00:10:34;;;;;;;3.47;2.47;;;10.60;99.90;;;;;;5074718;28;20202;-57
2022/02/23 00:13:01;;;;;;;2.03;0.50;;;10.50;99.90;;;;;;5073891;28;20232;-57
2022/02/23 00:15:27;;;;;;;2.83;0.90;;;10.60;99.90;;;;;;5074604;28;20204;-58
2022/02/23 00:17:55;;;;;;;2.20;0.90;;;10.60;99.90;;;;;;5074502;28;20246;-58
2022/02/23 00:20:22;;;;;;;0.97;0.60;;;10.60;99.90;;;;;;5074470;28;20205;-58
2022/02/23 00:22:49;;;;;;;1.17;0.60;;;10.60;99.90;;;;;;5074067;28;20224;-57
2022/02/23 00:25:17;;;;;;;3.67;0.60;;;10.60;99.90;;;;;;5074104;28;20571;-58
2022/02/23 00:27:44;;;;;;;1.30;0.63;;;10.70;99.90;;;;;;5074413;28;20209;-58
2022/02/23 00:30:11;;;;;;;0.97;0.50;;;10.70;99.90;;;;;;5074479;28;20325;-58
2022/02/23 00:32:38;;;;;;;1.60;0.60;;;10.80;99.90;;;;;;5073984;28;20232;-58
2022/02/23 00:35:05;;;;;;;3.63;0.90;;;10.80;99.90;;;;;;5073163;28;20205;-58
2022/02/23 00:37:32;;;;;;;1.20;0.60;;;10.80;99.90;;;;;;5074137;28;20212;-58
2022/02/23 00:39:59;;;;;;;1.43;0.50;;;10.80;99.90;;;;;;5074129;28;20211;-57
2022/02/23 00:42:27;;;;;;;1.87;0.73;;;10.80;99.90;;;;;;5073796;28;20610;-58
2022/02/23 00:44:54;;;;;;;2.00;0.70;;;10.80;99.90;;;;;;5074020;28;20228;-58
2022/02/23 00:47:20;;;;;;;1.60;0.40;;;10.80;99.90;;;;;;5073993;28;20205;-58
2022/02/23 00:49:48;;;;;;;1.47;0.90;;;10.90;99.90;;;;;;5073787;28;20250;-58
2022/02/23 00:52:15;;;;;;;1.33;0.60;;;10.90;99.90;;;;;;5073380;28;20724;-58
2022/02/23 00:54:42;;;;;;;1.90;0.73;;;10.90;99.90;;;;;;5073652;28;20893;-57
2022/02/23 00:57:09;;;;;;;1.60;0.60;;;10.80;99.90;;;;;;5073824;28;20258;-58
2022/02/23 00:59:37;;;;;;;2.07;0.70;;;10.90;99.90;;;;;;5073897;28;20211;-58
2022/02/23 01:02:04;;;;;;;0.80;0.67;;;10.90;99.90;;;;;;5073563;28;20219;-58
2022/02/23 01:04:31;;;;;;;1.93;0.83;;;10.90;99.90;;;;;;5073504;28;20695;-58
2022/02/23 01:06:58;;;;;;;2.27;1.03;;;10.90;99.90;;;;;;5073400;28;20598;-58
2022/02/23 01:09:25;;;;;;;2.60;1.10;;;10.90;99.90;;;;;;5073915;28;20209;-58
2022/02/23 01:11:51;;;;;;;1.80;1.10;;;10.90;99.90;;;;;;5072996;28;20222;-58
2022/02/23 01:14:18;;;;;;;0.93;0.70;;;10.90;99.90;;;;;;5073399;28;20229;-58
2022/02/23 01:16:46;;;;;;;1.97;0.90;;;11.00;99.90;;;;;;5073535;28;20262;-58
2022/02/23 01:19:13;;;;;;;1.03;0.63;;;11.00;99.90;;;;;;5073612;28;20228;-58
2022/02/23 01:21:40;;;;;;;2.37;0.97;;;11.00;99.90;;;;;;5073172;28;20205;-57
2022/02/23 01:24:07;;;;;;;0.93;0.50;;;11.00;99.90;;;;;;5073448;28;20228;-58
2022/02/23 01:26:33;;;;;;;1.23;0.60;;;11.00;99.90;;;;;;5073375;28;20212;-58
2022/02/23 01:29:00;;;;;;;1.00;0.60;;;11.00;99.90;;;;;;5074216;28;20201;-57
2022/02/23 01:31:27;;;;;;;1.43;0.57;;;11.00;99.90;;;;;;5072871;28;20687;-57
2022/02/23 01:33:55;;;;;;;3.87;0.80;;;10.50;99.90;;;;;;5072793;28;20348;-57
2022/02/23 01:36:22;;;;;;;6.07;1.07;;;9.60;99.90;;;;;;5072815;28;20631;-57
2022/02/23 01:38:48;;;;;;;3.63;1.13;;;9.10;99.90;;;;;;5072972;28;20212;-57
2022/02/23 01:41:19;;;;;;;1.87;0.53;;;8.80;99.90;;;;;;5073053;28;20420;-57
2022/02/23 01:43:46;;;;;;;2.97;0.90;;;8.40;99.90;;;;;;5072816;28;20227;-57
2022/02/23 01:46:12;;;;;;;3.50;1.40;;;8.10;99.90;;;;;;5072469;28;20205;-57
2022/02/23 01:48:39;;;;;;;1.87;0.70;;;7.90;99.90;;;;;;5072555;28;20205;-57
2022/02/23 01:51:07;;;;;;;4.00;0.70;;;7.70;99.90;;;;;;5072820;28;20218;-57
2022/02/23 01:53:34;;;;;;;1.93;1.03;;;7.60;99.90;;;;;;5072357;28;20232;-57
2022/02/23 01:56:01;;;;;;;3.03;1.00;;;7.60;99.90;;;;;;5072464;28;20730;-58
2022/02/23 01:58:27;;;;;;;5.07;1.10;;;7.50;99.90;;;;;;5072598;28;20503;-58
2022/02/23 02:00:54;;;;;;;2.70;0.97;;;7.50;99.90;;;;;;5072397;28;20610;-58
2022/02/23 02:03:21;;;;;;;4.17;0.93;;;7.50;99.90;;;;;;5072004;28;20221;-58
2022/02/23 02:05:48;;;;;;;4.70;1.13;;;7.60;99.90;;;;;;5072737;28;20719;-58
2022/02/23 02:08:16;;;;;;;3.10;0.83;;;7.70;99.90;;;;;;5072565;28;20742;-58
2022/02/23 02:10:42;;;;;;;1.73;0.90;;;7.50;99.90;;;;;;5072590;28;20205;-58
2022/02/23 02:13:09;;;;;;;2.63;0.77;;;7.50;99.90;;;;;;5071792;28;20282;-58
2022/02/23 02:15:36;;;;;;;2.23;0.80;;;7.70;99.90;;;;;;5072533;28;20491;-58
2022/02/23 02:18:03;;;;;;;5.17;1.03;;;7.90;99.90;;;;;;5071977;28;20201;-58
2022/02/23 02:20:29;;;;;;;3.07;1.10;;;8.10;99.90;;;;;;5072407;28;20212;-58
2022/02/23 02:22:57;;;;;;;4.43;1.00;;;8.20;99.90;;;;;;5071976;28;20231;-58
2022/02/23 02:25:24;;;;;;;5.43;1.20;;;8.30;99.90;;;;;;5072285;28;20270;-58
2022/02/23 02:27:51;;;;;;;2.37;1.07;;;8.40;99.90;;;;;;5072160;28;20261;-58
2022/02/23 02:30:17;;;;;;;4.13;0.87;;;8.40;99.90;;;;;;5071944;28;20208;-58
2022/02/23 02:32:44;;;;;;;4.50;1.10;;;8.50;99.90;;;;;;5071844;28;20236;-58
2022/02/23 02:35:12;;;;;;;4.70;1.30;;;8.50;99.90;;;;;;5072200;28;20229;-58
2022/02/23 02:37:39;;;;;;;3.77;1.10;;;8.60;99.90;;;;;;5071935;28;20212;-58
2022/02/23 02:40:08;;;;;;;3.47;1.00;;;8.70;99.90;;;;;;5072013;28;20208;-58
2022/02/23 02:42:35;;;;;;;3.60;1.00;;;8.70;99.90;;;;;;5071698;28;20229;-58
2022/02/23 02:45:01;;;;;;;4.40;1.40;;;8.80;99.90;;;;;;5071960;28;20209;-58
2022/02/23 02:47:28;;;;;;;4.20;1.10;;;8.70;99.90;;;;;;5071902;28;20212;-58
2022/02/23 02:49:55;;;;;;;3.37;0.80;;;8.80;99.90;;;;;;5071995;28;20306;-58
2022/02/23 02:52:22;;;;;;;5.10;1.40;;;8.70;99.90;;;;;;5071606;28;20606;-58
2022/02/23 02:54:49;;;;;;;4.57;1.63;;;8.70;99.90;;;;;;5071827;28;20232;-58
2022/02/23 02:57:17;;;;;;;5.93;1.33;;;8.70;99.90;;;;;;5071827;28;20235;-58
2022/02/23 02:59:43;;;;;;;3.07;1.10;;;8.70;99.90;;;;;;5074848;28;20220;-58
2022/02/23 03:02:10;;;;;;;2.77;0.90;;;8.80;99.90;;;;;;5075694;28;20228;-58
2022/02/23 03:04:37;;;;;;;5.90;1.30;;;8.80;99.90;;;;;;5076035;28;20201;-58
2022/02/23 03:07:04;;;;;;;5.30;1.10;;;8.80;99.90;;;;;;5075639;28;20220;-58
2022/02/23 03:09:30;;;;;;;5.20;1.03;;;8.90;99.90;;;;;;5076049;28;20208;-58
2022/02/23 03:11:57;;;;;;;4.00;1.13;;;8.90;99.90;;;;;;5075242;28;20262;-58
2022/02/23 03:14:25;;;;;;;4.10;0.93;;;8.80;99.90;;;;;;5075975;28;20278;-58
2022/02/23 03:16:52;;;;;;;3.80;1.13;;;8.80;99.90;;;;;;5075648;28;20201;-58
2022/02/23 03:19:19;;;;;;;7.23;1.10;;;8.80;99.90;;;;;;5075685;28;20205;-58
2022/02/23 03:21:45;;;;;;;7.00;1.77;;;8.70;99.90;;;;;;5075596;28;20205;-57
2022/02/23 03:24:12;;;;;;;3.17;1.07;;;8.60;99.90;;;;;;5075333;28;20221;-58
2022/02/23 03:26:39;;;;;;;3.93;1.20;;;8.60;99.90;;;;;;5075313;28;20212;-58
2022/02/23 03:29:05;;;;;;;4.33;1.20;;;8.70;99.90;;;;;;5075461;28;20209;-58
2022/02/23 03:31:33;;;;;;;4.43;1.30;;;8.80;99.90;;;;;;5075053;28;20239;-58
2022/02/23 03:34:00;;;;;;;4.97;1.43;;;8.80;99.90;;;;;;5075164;28;20232;-58
2022/02/23 03:36:27;;;;;;;5.77;1.73;;;8.60;99.90;;;;;;5075132;28;20741;-58
2022/02/23 03:38:54;;;;;;;4.37;1.10;;;8.40;99.90;;;;;;5075307;28;20584;-58
2022/02/23 03:41:20;;;;;;;7.07;2.90;;;8.30;99.90;;;;;;5075241;28;20208;-57
2022/02/23 03:43:47;;;;;;;5.50;1.50;;;8.20;99.90;;;;;;5075075;28;20221;-58
2022/02/23 03:46:14;;;;;;;2.50;1.10;;;8.10;99.90;;;;;;5075316;28;20242;-58
2022/02/23 03:48:42;;;;;;;4.13;1.30;;;8.00;99.90;;;;;;5075308;28;20254;-58
2022/02/23 03:51:09;;;;;;;3.77;1.10;;;7.90;99.90;;;;;;5075198;28;20225;-58
2022/02/23 03:53:36;;;;;;;5.67;1.47;;;7.80;99.90;;;;;;5074510;28;20231;-58
2022/02/23 03:56:03;;;;;;;5.07;1.00;;;7.80;99.90;;;;;;5074805;28;20560;-58
2022/02/23 03:58:29;;;;;;;6.47;1.70;;;7.80;99.90;;;;;;5075266;28;20205;-58
2022/02/23 04:00:56;;;;;;;7.30;1.53;;;7.80;99.90;;;;;;5075065;28;20231;-58
2022/02/23 04:03:23;;;;;;;4.70;1.40;;;7.80;99.90;;;;;;5074716;28;20231;-58
2022/02/23 04:05:51;;;;;;;4.73;1.33;;;7.80;99.90;;;;;;5074957;28;20215;-58
2022/02/23 04:08:18;;;;;;;3.83;1.27;;;7.80;99.90;;;;;;5074878;28;20205;-58
2022/02/23 04:10:44;;;;;;;3.90;1.17;;;7.90;99.90;;;;;;5075435;28;20611;-58
2022/02/23 04:13:11;;;;;;;6.17;1.50;;;7.90;99.90;;;;;;5074348;28;20233;-57
2022/02/23 04:15:38;;;;;;;4.63;1.63;;;8.00;99.90;;;;;;5074354;28;20274;-57
2022/02/23 04:18:06;;;;;;;6.47;1.47;;;8.10;99.90;;;;;;5074847;28;20270;-57
2022/02/23 04:20:32;;;;;;;5.83;1.50;;;8.20;99.90;;;;;;5074166;28;20215;-57
2022/02/23 04:23:00;;;;;;;8.13;2.40;;;8.30;99.90;;;;;;5073914;28;20232;-57
2022/02/23 04:25:27;;;;;;;6.23;1.53;;;8.40;99.90;;;;;;5074583;28;20475;-57
2022/02/23 04:27:54;;;;;;;6.40;1.60;;;8.40;99.90;;;;;;5073964;28;20618;-57
2022/02/23 04:30:20;;;;;;;4.63;1.30;;;8.50;99.90;;;;;;5074091;28;20211;-58
2022/02/23 04:32:47;;;;;;;4.67;2.07;;;8.50;99.90;;;;;;5073823;28;20224;-58
2022/02/23 04:35:14;;;;;;;2.87;1.40;;;8.50;99.90;;;;;;5073832;28;20225;-58
2022/02/23 04:37:40;;;;;;;2.90;1.30;;;8.50;99.90;;;;;;5073862;28;20586;-58
2022/02/23 04:40:10;;;;;;;5.07;1.77;;;8.40;99.90;;;;;;5073933;28;20582;-58
2022/02/23 04:42:37;;;;;;;6.33;1.20;;;8.30;99.90;;;;;;5073688;28;20236;-58
2022/02/23 04:45:04;;;;;;;7.50;1.90;;;8.30;99.90;;;;;;5073628;28;20246;-57
2022/02/23 04:47:31;;;;;;;6.70;2.17;;;8.20;99.90;;;;;;5073755;28;20567;-58
2022/02/23 04:49:59;;;;;;;5.53;1.37;;;8.20;99.90;;;;;;5073652;28;20200;-58
2022/02/23 04:52:26;;;;;;;5.93;2.10;;;8.00;99.90;;;;;;5073655;28;20225;-57
2022/02/23 04:54:53;;;;;;;8.23;1.37;;;7.90;99.90;;;;;;5073757;28;20225;-58
2022/02/23 04:57:22;;;;;;;6.90;1.67;;;7.70;99.90;;;;;;5073813;28;20274;-57
2022/02/23 04:59:49;;;;;;;6.43;1.70;;;7.60;99.90;;;;;;5073511;28;20205;-57
2022/02/23 05:02:15;;;;;;;9.23;1.43;;;7.40;99.90;;;;;;5073147;28;20647;-57
2022/02/23 05:04:42;;;;;;;5.27;1.70;;;7.30;99.90;;;;;;5073437;28;20495;-58
2022/02/23 05:07:09;;;;;;;5.87;1.70;;;7.20;99.90;;;;;;5073558;28;20204;-58
2022/02/23 05:09:37;;;;;;;6.07;2.03;;;7.00;99.90;;;;;;5073589;28;20232;-58
2022/02/23 05:12:05;;;;;;;5.53;1.93;;;6.90;99.90;;;;;;5072967;28;20263;-58
2022/02/23 05:14:33;;;;;;;4.97;1.87;;;6.80;99.90;;;;;;5073153;28;20725;-57
2022/02/23 05:17:00;;;;;;;6.03;1.47;;;6.70;99.90;;;;;;5073000;28;20208;-57
2022/02/23 05:19:27;;;;;;;6.50;1.63;;;6.70;99.90;;;;;;5073135;28;20205;-57
2022/02/23 05:21:53;;;;;;;4.63;1.73;;;6.50;99.90;;;;;;5072112;28;20654;-57
2022/02/23 05:24:20;;;;;;;5.57;2.03;;;6.30;99.90;;;;;;5073280;28;20205;-57
2022/02/23 05:26:47;;;;;;;5.70;2.30;;;6.10;99.90;;;;;;5073106;28;20207;-58
2022/02/23 05:29:14;;;;;;;3.83;1.70;;;6.10;99.90;;;;;;5073052;28;20207;-58
2022/02/23 05:31:42;;;;;;;7.80;2.53;;;6.00;99.90;;;;;;5073084;28;20212;-57
2022/02/23 05:34:08;;;;;;;4.63;1.80;;;5.90;99.90;;;;;;5073315;28;20652;-58
2022/02/23 05:36:35;;;;;;;7.17;2.30;;;5.90;99.90;;;;;;5072999;28;20209;-58
2022/02/23 05:39:02;;;;;;;7.23;2.17;;;5.80;99.90;;;;;;5073026;28;20259;-58
2022/02/23 05:41:28;;;;;;;5.37;2.30;;;5.80;99.90;;;;;;5072929;28;20209;-58
2022/02/23 05:43:55;;;;;;;10.63;4.10;;;5.70;99.90;;;;;;5072527;28;20229;-58
2022/02/23 05:46:22;;;;;;;5.60;2.23;;;5.60;99.90;;;;;;5072392;28;20231;-57
2022/02/23 05:48:50;;;;;;;6.60;2.37;;;5.60;99.90;;;;;;5072890;28;20681;-57
2022/02/23 05:51:28;;;;;;;7.53;2.37;;;5.60;99.90;;;;;;5072791;28;20238;-57
2022/02/23 05:53:55;;;;;;;5.17;1.90;;;5.60;99.90;;;;;;5072314;28;20221;-57
2022/02/23 05:56:22;;;;;;;8.27;3.87;;;5.50;99.90;;;;;;5072429;28;20606;-57
2022/02/23 05:58:49;;;;;;;5.60;2.50;;;5.40;99.90;;;;;;5072451;28;20211;-57
2022/02/23 06:01:16;;;;;;;7.37;2.53;;;5.40;99.90;;;;;;5072316;28;20586;-58
2022/02/23 06:03:43;;;;;;;3.63;2.17;;;5.30;99.90;;;;;;5072187;28;20224;-58
2022/02/23 06:06:11;;;;;;;8.17;2.60;;;5.30;99.90;;;;;;5072194;28;20814;-56
2022/02/23 06:08:37;;;;;;;7.97;2.57;;;5.10;99.90;;;;;;5072460;28;20515;-57
2022/02/23 06:11:04;;;;;;;10.20;3.33;;;5.00;99.90;;;;;;5072224;28;20213;-58
2022/02/23 06:13:31;;;;;;;8.67;2.90;;;5.00;99.90;;;;;;5072088;28;20237;-57
2022/02/23 06:15:58;;;;;;;7.97;2.50;;;5.00;99.90;;;;;;5072493;28;20240;-58
2022/02/23 06:18:25;;;;;;;7.47;2.23;;;5.00;99.90;;;;;;5071950;28;20699;-57
2022/02/23 06:20:54;;;;;;;6.93;2.47;;;5.00;99.90;;;;;;5072133;28;20201;-57
2022/02/23 06:23:22;;;;;;;7.27;2.20;;;5.00;99.90;;;;;;5071832;28;20224;-57
2022/02/23 06:25:48;;;;;;;8.90;2.80;;;5.00;99.90;;;;;;5071665;28;20201;-57
2022/02/23 06:28:15;;;;;;;7.40;2.53;;;5.10;99.90;;;;;;5072467;28;20215;-57
2022/02/23 06:30:42;;;;;;;7.80;2.60;;;5.10;99.90;;;;;;5072436;28;20208;-57
2022/02/23 06:33:09;;;;;;;4.73;2.47;;;5.20;99.90;;;;;;5071094;28;20259;-56
2022/02/23 06:35:35;;;;;;;5.33;2.30;;;5.30;99.90;;;;;;5071917;28;20221;-57
2022/02/23 06:38:02;;;;;;;7.33;2.70;;;5.40;99.90;;;;;;5071948;28;20670;-57
2022/02/23 06:40:31;;;;;;;8.00;3.37;;;5.50;99.90;;;;;;5071995;28;20672;-57
2022/02/23 06:42:59;;;;;;;7.07;3.50;;;5.60;99.90;;;;;;5071870;28;20232;-56
2022/02/23 06:45:25;;;;;;;6.80;2.70;;;5.80;99.90;;;;;;5072079;28;20209;-57
2022/02/23 06:47:52;;;;;;;10.57;2.60;;;6.10;99.90;;;;;;5071717;28;20205;-56
2022/02/23 06:50:19;;;;;;;9.67;3.50;;;6.10;99.90;;;;;;5071724;28;20211;-57
2022/02/23 06:52:46;;;;;;;3.63;2.47;;;6.20;99.90;;;;;;5071279;28;20232;-57
2022/02/23 06:55:15;;;;;;;6.83;2.80;;;6.20;99.90;;;;;;5071901;28;20239;-57
2022/02/23 06:57:43;;;;;;;5.90;3.03;;;6.30;99.90;;;;;;5071803;28;20205;-57
2022/02/23 07:00:12;;;;;;;7.53;3.20;;;6.50;99.90;;;;;;5071876;28;20205;-57
2022/02/23 07:02:38;;;;;;;7.40;2.77;;;6.60;99.90;;;;;;5071436;28;20247;-57
2022/02/23 07:05:06;;;;;;;7.47;3.00;;;6.70;99.90;;;;;;5071401;28;20746;-57
2022/02/23 07:07:33;;;;;;;5.57;2.83;;;6.70;99.90;;;;;;5071424;28;20209;-58
2022/02/23 07:10:00;;;;;;;8.60;2.97;;;6.80;99.90;;;;;;5071913;28;20208;-57
2022/02/23 07:12:27;;;;;;;7.17;3.73;;;6.80;99.90;;;;;;5070940;28;20716;-57
2022/02/23 07:14:56;;;;;;;6.90;3.40;;;6.80;99.90;;;;;;5071491;28;20696;-57
2022/02/23 07:17:24;;;;;;;10.23;2.90;;;6.70;99.90;;;;;;5071432;28;20255;-57
2022/02/23 07:19:50;;;;;;;8.63;3.03;;;6.60;99.90;;;;;;5071456;28;20201;-57
2022/02/23 07:22:17;;;;;;;6.67;3.20;;;6.50;99.90;;;;;;5071304;28;20243;-57
2022/02/23 07:24:44;;;;;;;6.93;2.80;;;6.70;99.90;;;;;;5071631;28;20274;-58
2022/02/23 07:27:11;;;;;;;5.63;3.10;;;6.90;99.90;;;;;;5071329;28;20205;-56
2022/02/23 07:29:38;;;;;;;7.80;3.03;;;7.10;99.90;;;;;;5071570;28;20238;-56
2022/02/23 07:32:07;;;;;;;7.00;3.07;;;7.20;99.90;;;;;;5070934;28;20634;-58
2022/02/23 07:34:37;;;;;;;5.70;2.83;;;7.50;99.90;;;;;;5071184;28;20208;-56
2022/02/23 07:37:04;;;;;;;5.27;2.80;;;7.60;99.90;;;;;;5071632;28;20209;-56
2022/02/23 07:39:30;;;;;;;5.87;2.97;;;7.70;99.90;;;;;;5071118;28;20703;-56
2022/02/23 07:41:57;;;;;;;6.30;3.83;;;7.80;99.90;;;;;;5070972;28;20632;-56
2022/02/23 07:44:24;;;;;;;6.20;3.50;;;7.80;99.90;;;;;;5072001;28;20448;-56
2022/02/23 07:46:51;;;;;;;6.03;3.20;;;7.80;99.90;;;;;;5074888;28;20208;-57
2022/02/23 07:49:19;;;;;;;6.93;3.93;;;7.60;99.90;;;;;;5074638;28;20204;-56
2022/02/23 07:51:45;;;;;;;10.27;3.23;;;7.40;99.90;;;;;;5074677;28;20621;-56
2022/02/23 07:54:12;;;;;;;11.60;6.83;;;7.20;99.90;;;;;;5074716;28;20324;-56
2022/02/23 07:56:39;;;;;;;5.67;3.93;;;7.20;99.90;;;;;;5074624;28;20264;-56
2022/02/23 07:59:06;;;;;;;10.53;4.97;;;7.20;99.90;;;;;;5074827;28;20234;-56
2022/02/23 08:01:34;;;;;;;6.13;3.20;;;7.10;99.90;;;;;;5074603;28;20209;-56
2022/02/23 08:04:02;;;;;;;9.17;3.03;;;7.10;99.90;;;;;;5074698;28;20316;-56
2022/02/23 08:06:31;;;;;;;7.70;2.63;;;6.90;99.90;;;;;;5074636;28;20207;-56
2022/02/23 08:08:57;;;;;;;9.87;4.23;;;6.80;99.90;;;;;;5074474;28;20605;-57
2022/02/23 08:11:25;;;;;;;9.37;2.93;;;7.00;99.90;;;;;;5074426;28;20216;-57
2022/02/23 08:13:58;;;;;;;6.57;2.97;;;7.00;99.90;;;;;;5074252;28;20716;-56
2022/02/23 08:21:57;;;;;;;13.23;5.70;;;7.40;99.90;;;;;;5074644;28;20327;-57
2022/02/23 08:24:24;;;;;;;15.60;7.80;;;7.60;99.90;;;;;;5074477;28;20262;-56
2022/02/23 08:26:51;;;;;;;8.47;3.80;;;7.70;99.90;;;;;;5074347;28;20208;-57
2022/02/23 08:29:17;;;;;;;6.83;3.60;;;7.80;99.90;;;;;;5074722;28;20209;-57
2022/02/23 08:31:44;;;;;;;4.57;2.53;;;7.80;99.90;;;;;;5076786;28;20635;-58
2022/02/23 08:34:11;;;;;;;6.63;2.90;;;7.70;99.90;;;;;;5074708;28;20225;-57
2022/02/23 08:36:38;;;;;;;6.53;2.73;;;7.70;99.90;;;;;;5075446;28;20235;-58
2022/02/23 08:39:07;;;;;;;8.63;3.03;;;7.80;99.90;;;;;;5075783;28;20224;-58
2022/02/23 08:41:34;;;;;;;8.30;3.10;;;7.90;99.90;;;;;;5075892;28;20201;-58
2022/02/23 08:44:02;;;;;;;7.20;2.53;;;8.00;99.90;;;;;;5075245;28;20221;-57
2022/02/23 08:46:29;;;;;;;4.87;2.90;;;8.10;99.90;;;;;;5075940;28;20209;-58
2022/02/23 08:48:56;;;;;;;9.13;3.43;;;8.10;99.90;;;;;;5074987;28;20213;-58
2022/02/23 08:51:23;;;;;;;7.17;2.60;;;8.20;99.90;;;;;;5074630;28;20232;-58
2022/02/23 08:53:50;;;;;;;9.07;2.57;;;8.20;99.90;;;;;;5074420;28;20316;-59
2022/02/23 08:56:18;;;;;;;9.87;2.93;;;8.40;99.90;;;;;;5073663;28;20315;-58
2022/02/23 08:58:45;;;;;;;7.40;2.70;;;8.60;99.90;;;;;;5074947;28;20583;-58
2022/02/23 09:01:12;;;;;;;6.67;3.27;;;8.60;99.90;;;;;;5074659;28;20212;-58
2022/02/23 09:03:39;;;;;;;9.13;2.37;;;8.70;99.90;;;;;;5074630;28;20624;-59
2022/02/23 09:06:06;;;;;;;6.40;3.00;;;8.70;99.90;;;;;;5074501;28;20292;-58
2022/02/23 09:08:33;;;;;;;5.03;2.40;;;8.80;99.90;;;;;;5074300;28;20254;-63
2022/02/23 09:11:00;;;;;;;8.70;2.60;;;8.80;99.90;;;;;;5075425;28;20205;-62
2022/02/23 09:13:28;;;;;;;8.73;3.23;;;8.90;99.90;;;;;;5116589;22;20232;-59
2022/02/23 09:15:55;;;;;;;10.33;2.70;;;9.10;99.90;;;;;;5114082;28;20690;-59
2022/02/23 09:18:21;;;;;;;7.37;2.83;;;9.30;99.90;;;;;;5114180;28;20211;-60
2022/02/23 09:20:48;;;;;;;6.63;2.70;;;9.60;99.90;;;;;;5114729;28;20227;-60
2022/02/23 09:23:16;;;;;;;5.97;2.13;;;9.90;99.90;;;;;;5114091;28;20284;-59
2022/02/23 09:25:42;;;;;;;7.53;1.97;;;10.30;99.90;;;;;;5114021;28;20261;-60
2022/02/23 09:28:09;;;;;;;6.57;2.17;;;10.50;99.90;;;;;;5113901;28;20256;-60
2022/02/23 09:30:37;;;;;;;9.60;2.63;;;10.70;99.90;;;;;;5113836;28;20211;-60
2022/02/23 09:33:04;;;;;;;6.33;2.13;;;10.80;99.90;;;;;;5113197;28;20287;-60
2022/02/23 09:35:30;;;;;;;4.43;1.87;;;10.80;99.90;;;;;;5113739;28;20231;-60
2022/02/23 09:37:57;;;;;;;6.47;2.17;;;10.80;99.90;;;;;;5113749;28;20203;-60
2022/02/23 09:40:25;;;;;;;5.57;1.67;;;10.80;99.90;;;;;;5113917;28;20200;-60
2022/02/23 09:42:52;;;;;;;6.27;1.73;;;10.80;99.90;;;;;;5113858;28;20318;-59
2022/02/23 09:45:19;;;;;;;6.27;1.77;;;10.90;99.90;;;;;;5113764;28;20210;-60
2022/02/23 09:47:47;;;;;;;4.73;1.60;;;10.90;99.90;;;;;;5113407;28;20260;-59
2022/02/23 09:50:19;;;;;;;6.07;1.60;;;10.80;99.90;;;;;;5113204;28;20298;-59
2022/02/23 09:52:47;;;;;;;6.33;1.60;;;10.90;99.90;;;;;;5113173;28;20219;-59
2022/02/23 09:55:14;;;;;;;8.27;2.23;;;11.10;99.90;;;;;;5113239;28;20207;-59
2022/02/23 09:57:41;;;;;;;4.37;1.90;;;11.20;99.90;;;;;;5113237;28;20295;-60
2022/02/23 10:00:09;;;;;;;6.07;1.90;;;11.40;99.90;;;;;;5113105;28;20324;-61
2022/02/23 10:02:36;;;;;;;5.13;1.70;;;11.60;99.90;;;;;;5112584;28;20742;-60
2022/02/23 10:05:07;;;;;;;8.43;2.23;;;11.70;99.90;;;;;;5113228;28;20204;-59
2022/02/23 10:07:38;;;;;;;3.83;1.60;;;11.80;99.90;;;;;;5113011;28;20207;-60
2022/02/23 10:10:08;;;;;;;5.07;1.80;;;11.70;99.90;;;;;;5113010;28;20294;-59
2022/02/23 10:12:36;;;;;;;6.80;1.70;;;11.50;99.90;;;;;;5112324;28;20200;-59
2022/02/23 10:15:11;;;;;;;5.00;1.50;;;11.50;99.90;;;;;;5112406;28;20683;-60
2022/02/23 10:17:39;;;;;;;3.37;1.40;;;11.90;99.90;;;;;;5112761;28;20230;-59
2022/02/23 10:20:21;;;;;;;6.87;1.83;;;12.20;99.90;;;;;;5112869;28;20226;-60
2022/02/23 10:22:49;;;;;;;7.33;1.97;;;12.50;99.90;;;;;;5112388;28;20255;-59
2022/02/23 10:25:21;;;;;;;5.53;1.87;;;12.60;99.90;;;;;;5112616;28;20203;-58
2022/02/23 10:27:48;;;;;;;6.73;1.70;;;12.70;99.90;;;;;;5112415;28;20211;-59
2022/02/23 10:30:27;;;;;;;4.60;1.57;;;12.40;99.90;;;;;;5112879;28;20212;-59
2022/02/23 10:32:55;;;;;;;6.30;1.40;;;12.20;99.90;;;;;;5112467;28;20250;-60
2022/02/23 10:35:28;;;;;;;5.37;1.83;;;11.80;99.90;;;;;;5112748;28;20237;-62
2022/02/23 10:37:55;;;;;;;7.88;1.83;;;11.60;99.90;;;;;;5109007;28;20423;-61
2022/02/23 10:40:23;;;;;;;4.57;1.50;;;11.70;99.90;;;;;;5112617;28;20211;-60
2022/02/23 10:42:51;;;;;;;4.73;1.30;;;11.90;99.90;;;;;;5112548;28;20767;-62
2022/02/23 10:45:18;;;;;;;6.50;1.80;;;12.30;99.90;;;;;;5112129;28;20199;-64
2022/02/23 10:47:48;;;;;;;5.87;1.50;;;12.60;99.90;;;;;;5111989;28;20283;-59
2022/02/23 10:50:17;;;;;;;3.50;1.30;;;13.00;99.90;;;;;;5112376;28;20208;-58
2022/02/23 10:52:53;;;;;;;4.27;1.50;;;13.20;99.90;;;;;;5111935;28;20228;-58
2022/02/23 10:55:23;;;;;;;4.67;1.20;;;13.30;99.90;;;;;;5112355;28;20214;-59
2022/02/23 10:57:54;;;;;;;5.30;1.77;;;13.40;99.90;;;;;;5112147;28;20227;-60
2022/02/23 11:00:23;;;;;;;2.97;1.10;;;13.40;99.90;;;;;;5112260;28;20214;-58
2022/02/23 11:02:51;;;;;;;6.60;2.70;;;13.50;99.90;;;;;;5111679;28;20223;-59
2022/02/23 11:05:23;;;;;;;7.63;2.00;;;13.70;99.90;;;;;;5111915;28;20654;-60
2022/02/23 11:07:52;;;;;;;3.37;1.33;;;13.90;99.90;;;;;;5112416;28;20196;-60
2022/02/23 11:10:19;;;;;;;6.27;1.77;;;14.00;99.90;;;;;;5112243;28;20206;-59
2022/02/23 11:12:48;;;;;;;5.93;1.70;;;14.00;99.90;;;;;;5111556;28;20227;-59
2022/02/23 11:15:16;;;;;;;4.10;1.50;;;14.10;99.90;;;;;;5111835;28;20596;-58
2022/02/23 11:17:45;;;;;;;4.30;1.73;;;14.20;99.90;;;;;;5112141;28;20231;-59
2022/02/23 11:20:15;;;;;;;3.37;1.40;;;14.20;99.90;;;;;;5114536;28;20294;-58
2022/02/23 11:22:43;;;;;;;3.87;1.47;;;14.20;99.90;;;;;;5116776;28;20280;-58
2022/02/23 11:25:11;;;;;;;4.30;1.60;;;14.20;99.40;;;;;;5116338;28;20230;-59
2022/02/23 11:27:41;;;;;;;4.37;1.30;;;14.20;99.90;;;;;;5115988;28;20207;-59
2022/02/23 11:30:14;;;;;;;4.57;1.50;;;14.10;99.20;;;;;;5115837;28;20227;-59
2022/02/23 11:32:43;;;;;;;6.03;1.70;;;13.90;99.60;;;;;;5115819;28;20227;-58
2022/02/23 11:35:11;;;;;;;4.97;1.43;;;14.00;99.90;;;;;;5115819;28;20207;-58
2022/02/23 11:37:38;;;;;;;7.33;3.00;;;14.10;99.90;;;;;;5115349;28;20667;-58
2022/02/23 11:40:08;;;;;;;6.27;1.50;;;14.10;99.50;;;;;;5116012;28;20260;-58
2022/02/23 11:42:37;;;;;;;4.37;1.53;;;14.00;98.80;;;;;;5115092;28;20281;-58
2022/02/23 11:45:09;;;;;;;5.90;1.50;;;13.90;99.40;;;;;;5115468;28;20207;-58
2022/02/23 11:47:45;;;;;;;5.57;1.70;;;14.00;98.80;;;;;;5115235;28;20202;-58
2022/02/23 11:50:17;;;;;;;11.83;1.80;;;13.90;99.80;;;;;;5115700;28;20218;-58
2022/02/23 11:52:45;;;;;;;9.43;2.43;;;14.00;99.50;;;;;;5115090;28;20223;-59
2022/02/23 11:55:14;;;;;;;5.00;1.60;;;14.20;99.30;;;;;;5115164;28;20212;-60
2022/02/23 11:57:50;;;;;;;3.90;1.70;;;14.30;98.50;;;;;;5115502;28;20310;-59
2022/02/23 12:00:21;;;;;;;4.67;1.67;;;14.40;98.00;;;;;;5115286;27;20286;-59
2022/02/23 12:02:59;;;;;;;4.33;1.37;;;14.40;97.30;;;;;;5114754;28;20224;-58
2022/02/23 12:05:44;;;;;;;4.60;1.73;;;14.50;97.80;;;;;;5114741;28;20207;-59
2022/02/23 12:08:47;;;;;;;5.57;1.60;;;14.60;97.70;;;;;;5115644;28;20235;-58
2022/02/23 12:11:50;;;;;;;5.20;1.50;;;14.70;97.30;;;;;;5110204;28;20203;-57
2022/02/23 12:14:18;;;;;;;5.10;1.50;;;14.60;97.30;;;;;;5070501;28;20224;-57
2022/02/23 12:16:50;;;;;;;3.13;1.53;;;14.30;97.50;;;;;;5105050;28;20234;-58
2022/02/23 12:19:38;;;;;;;4.47;1.50;;;14.30;97.70;;;;;;5114865;28;20564;-58
2022/02/23 12:22:04;;;;;;;4.10;1.43;;;14.30;97.90;;;;;;5113513;28;20203;-58
2022/02/23 12:24:31;;;;;;;2.87;1.33;;;14.30;97.90;;;;;;5113037;28;20280;-58
2022/02/23 12:26:58;;;;;;;4.23;1.57;;;14.50;97.40;;;;;;5113205;28;20225;-57
2022/02/23 12:29:28;;;;;;;5.63;1.73;;;14.70;96.30;;;;;;5113552;28;20211;-56
2022/02/23 12:31:56;;;;;;;3.17;1.33;;;14.70;96.60;;;;;;5111989;28;20675;-58
2022/02/23 12:34:23;;;;;;;8.00;2.00;;;14.70;96.10;;;;;;5112848;28;20608;-58
2022/02/23 12:36:53;;;;;;;4.70;1.60;;;14.70;95.60;;;;;;5113294;28;20251;-59
2022/02/23 12:39:22;;;;;;;8.33;1.83;;;14.60;95.70;;;;;;5113611;28;20845;-57
2022/02/23 12:41:52;;;;;;;5.77;1.77;;;14.50;96.20;;;;;;5109959;28;20204;-59
2022/02/23 12:44:21;;;;;;;5.40;1.73;;;14.60;96.50;;;;;;5113244;28;20216;-59
2022/02/23 12:46:51;;;;;;;5.33;1.90;;;14.80;96.60;;;;;;5113191;28;20667;-57
2022/02/23 12:49:18;;;;;;;6.13;1.87;;;15.00;96.20;;;;;;5113440;28;20206;-57
2022/02/23 12:51:45;;;;;;;3.83;1.70;;;15.10;95.80;;;;;;5113406;28;20533;-57
2022/02/23 12:54:14;;;;;;;6.97;1.80;;;15.20;95.60;;;;;;5113126;28;20231;-55
2022/02/23 12:56:42;;;;;;;3.73;1.73;;;15.30;95.60;;;;;;5113098;28;20246;-56
2022/02/23 12:59:11;;;;;;;4.07;1.63;;;15.30;95.20;;;;;;5113285;28;20211;-58
2022/02/23 13:01:41;;;;;;;3.90;1.83;;;15.10;95.50;;;;;;5113012;28;20207;-56